Danielsville, Georgia
Current Conditions -  °F | °C
As of 9:51 PM on Tuesday 25 Nov 2014 (Local Time) from KAHN Reporting Station
Light Rain Light Rain  
Wind Chill: 45°   Ceiling: 7000
Heat Index: 48°   Visibility: 10mi
Dew Point: 44°   Wind: 6mph
Humidity: 86%   Direction: 290°WNW
Pressure: 30.07"   Gusts: NA
Location:  34.12°N, 83.22°W
Report Text: KAHN 260251Z AUTO 29005KT 10SM -RA OVC070 09/07 A3007 RMK AO2 RAB14 SLP183 P0000 60000 T00890067 51011
Loading
Personal Weather Stations






























Interactive Weather Map New forecast layout! Learn more

10-Day Weather Forecast

Advertisements
Track Severe Weather on mobile